HAZ1806 ZBAD-ZUUU
Flight info
| Callsign | HAZ1806 |
|---|---|
| Flight time | 2h 6m |
| Altitude | 34100 |
| Route | PEGSO7F PEGSO B215 GODON W43 SAVPA W276 ANRUG W279 ONEBA G212 SUBUL W230 AKDIK AKDIK2E |
| Aircraft | B77W/H-SDE1E2E3FGHIJ2J3J4J5M1RWXY/LB1D1 |
Departure
| Time | 2026-04-18 07:41 |
|---|---|
| Airport | Beijing Daxing International Airport (ZBAD) |
Arrival
| Time | 2026-04-18 09:48 |
|---|---|
| Airport | Chengdu Shuangliu International Airport (ZUUU) |
| Time | Latitude | Longitude | Altitude | Speed | Heading |
|---|---|---|---|---|---|
| 2026-04-18 06:51 | 39.50691 | 116.40731 | 97 ft | 0 kts | 313° |
| 2026-04-18 07:27 | 39.50691 | 116.40732 | 96 ft | 0 kts | 313° |
| 2026-04-18 07:27 | 39.50681 | 116.40744 | 96 ft | 2 kts | 313° |
| 2026-04-18 07:27 | 39.50671 | 116.40758 | 96 ft | 2 kts | 313° |
| 2026-04-18 07:27 | 39.50661 | 116.40772 | 96 ft | 2 kts | 315° |
| 2026-04-18 07:28 | 39.50650 | 116.40784 | 96 ft | 2 kts | 324° |
| 2026-04-18 07:28 | 39.50637 | 116.40795 | 96 ft | 2 kts | 330° |
| 2026-04-18 07:28 | 39.50625 | 116.40803 | 96 ft | 2 kts | 336° |
| 2026-04-18 07:28 | 39.50610 | 116.40810 | 96 ft | 2 kts | 343° |
| 2026-04-18 07:29 | 39.50596 | 116.40815 | 97 ft | 2 kts | 350° |
| 2026-04-18 07:29 | 39.50581 | 116.40817 | 96 ft | 2 kts | 356° |
| 2026-04-18 07:29 | 39.50567 | 116.40818 | 96 ft | 2 kts | 3° |
| 2026-04-18 07:29 | 39.50552 | 116.40816 | 96 ft | 2 kts | 9° |
| 2026-04-18 07:30 | 39.50538 | 116.40812 | 96 ft | 2 kts | 16° |
| 2026-04-18 07:30 | 39.50524 | 116.40806 | 96 ft | 2 kts | 22° |
| 2026-04-18 07:30 | 39.50510 | 116.40798 | 96 ft | 2 kts | 21° |
| 2026-04-18 07:30 | 39.50496 | 116.40792 | 96 ft | 2 kts | 15° |
| 2026-04-18 07:31 | 39.50481 | 116.40788 | 96 ft | 2 kts | 11° |
| 2026-04-18 07:31 | 39.50467 | 116.40784 | 96 ft | 2 kts | 7° |
| 2026-04-18 07:31 | 39.50452 | 116.40782 | 96 ft | 2 kts | 3° |
| 2026-04-18 07:31 | 39.50437 | 116.40781 | 96 ft | 2 kts | 359° |
| 2026-04-18 07:32 | 39.50423 | 116.40782 | 96 ft | 2 kts | 355° |
| 2026-04-18 07:32 | 39.50408 | 116.40784 | 96 ft | 2 kts | 352° |
| 2026-04-18 07:32 | 39.50400 | 116.40785 | 96 ft | 0 kts | 351° |
| 2026-04-18 07:34 | 39.50417 | 116.40782 | 96 ft | 5 kts | 351° |
| 2026-04-18 07:34 | 39.50463 | 116.40771 | 96 ft | 7 kts | 342° |
| 2026-04-18 07:34 | 39.50498 | 116.40717 | 96 ft | 8 kts | 272° |
| 2026-04-18 07:34 | 39.50489 | 116.40631 | 96 ft | 10 kts | 262° |
| 2026-04-18 07:35 | 39.50479 | 116.40530 | 96 ft | 12 kts | 262° |
| 2026-04-18 07:35 | 39.50502 | 116.40433 | 96 ft | 11 kts | 321° |
| 2026-04-18 07:35 | 39.50573 | 116.40366 | 96 ft | 13 kts | 322° |
| 2026-04-18 07:35 | 39.50639 | 116.40292 | 96 ft | 10 kts | 295° |
| 2026-04-18 07:36 | 39.50641 | 116.40189 | 96 ft | 12 kts | 262° |
| 2026-04-18 07:36 | 39.50628 | 116.40074 | 96 ft | 10 kts | 261° |
| 2026-04-18 07:36 | 39.50663 | 116.40012 | 96 ft | 10 kts | 349° |
| 2026-04-18 07:36 | 39.50741 | 116.40000 | 96 ft | 12 kts | 353° |
| 2026-04-18 07:37 | 39.50834 | 116.39986 | 96 ft | 14 kts | 352° |
| 2026-04-18 07:37 | 39.50936 | 116.39969 | 96 ft | 15 kts | 352° |
| 2026-04-18 07:37 | 39.51047 | 116.39951 | 96 ft | 16 kts | 352° |
| 2026-04-18 07:37 | 39.51168 | 116.39932 | 97 ft | 18 kts | 352° |
| 2026-04-18 07:38 | 39.51297 | 116.39910 | 97 ft | 19 kts | 352° |
| 2026-04-18 07:38 | 39.51310 | 116.39909 | 97 ft | 19 kts | 352° |
| 2026-04-18 07:38 | 39.51447 | 116.39887 | 97 ft | 20 kts | 354° |
| 2026-04-18 07:38 | 39.51589 | 116.39866 | 97 ft | 20 kts | 352° |
| 2026-04-18 07:39 | 39.51729 | 116.39844 | 96 ft | 14 kts | 353° |
| 2026-04-18 07:39 | 39.51792 | 116.39790 | 97 ft | 11 kts | 275° |
| 2026-04-18 07:39 | 39.51786 | 116.39681 | 97 ft | 12 kts | 262° |
| 2026-04-18 07:39 | 39.51754 | 116.39626 | 96 ft | 7 kts | 190° |
| 2026-04-18 07:40 | 39.51698 | 116.39629 | 97 ft | 8 kts | 173° |
| 2026-04-18 07:40 | 39.51574 | 116.39648 | 97 ft | 34 kts | 173° |
| 2026-04-18 07:40 | 39.51110 | 116.39719 | 97 ft | 101 kts | 173° |
| 2026-04-18 07:40 | 39.50187 | 116.39866 | 97 ft | 161 kts | 175° |
| 2026-04-18 07:41 | 39.48969 | 116.40054 | 443 ft | 183 kts | 175° |
| 2026-04-18 07:41 | 39.47713 | 116.40213 | 1053 ft | 186 kts | 175° |
| 2026-04-18 07:41 | 39.46452 | 116.40408 | 1741 ft | 184 kts | 174° |
| 2026-04-18 07:41 | 39.45187 | 116.40611 | 2295 ft | 187 kts | 175° |
| 2026-04-18 07:42 | 39.43892 | 116.40808 | 2911 ft | 188 kts | 175° |
| 2026-04-18 07:42 | 39.42590 | 116.41003 | 3380 ft | 197 kts | 175° |
| 2026-04-18 07:42 | 39.41160 | 116.41224 | 3702 ft | 215 kts | 175° |
| 2026-04-18 07:42 | 39.39600 | 116.41472 | 4070 ft | 233 kts | 175° |
| 2026-04-18 07:43 | 39.37936 | 116.41734 | 4494 ft | 249 kts | 174° |
| 2026-04-18 07:43 | 39.36205 | 116.41914 | 5110 ft | 254 kts | 185° |
| 2026-04-18 07:43 | 39.34528 | 116.41301 | 5822 ft | 255 kts | 208° |
| 2026-04-18 07:43 | 39.33175 | 116.39808 | 6526 ft | 259 kts | 231° |
| 2026-04-18 07:44 | 39.32233 | 116.37843 | 7265 ft | 261 kts | 237° |
| 2026-04-18 07:44 | 39.31360 | 116.35792 | 7713 ft | 264 kts | 238° |
| 2026-04-18 07:44 | 39.30453 | 116.33652 | 8153 ft | 273 kts | 238° |
| 2026-04-18 07:44 | 39.29555 | 116.31536 | 9059 ft | 267 kts | 238° |
| 2026-04-18 07:45 | 39.28666 | 116.29454 | 9787 ft | 268 kts | 238° |
| 2026-04-18 07:45 | 39.27758 | 116.27332 | 10277 ft | 278 kts | 238° |
| 2026-04-18 07:45 | 39.26802 | 116.25100 | 10574 ft | 295 kts | 239° |
| 2026-04-18 07:45 | 39.25775 | 116.22700 | 10901 ft | 312 kts | 239° |
| 2026-04-18 07:46 | 39.24712 | 116.20216 | 11248 ft | 328 kts | 239° |
| 2026-04-18 07:46 | 39.23584 | 116.17583 | 11661 ft | 344 kts | 240° |
| 2026-04-18 07:46 | 39.22406 | 116.14838 | 12129 ft | 358 kts | 240° |
| 2026-04-18 07:46 | 39.21172 | 116.11962 | 12813 ft | 367 kts | 240° |
| 2026-04-18 07:47 | 39.19952 | 116.09122 | 13671 ft | 371 kts | 241° |
| 2026-04-18 07:47 | 39.18695 | 116.06196 | 14594 ft | 376 kts | 241° |
| 2026-04-18 07:47 | 39.17436 | 116.03267 | 15490 ft | 382 kts | 241° |
| 2026-04-18 07:47 | 39.16130 | 116.00234 | 16452 ft | 387 kts | 241° |
| 2026-04-18 07:48 | 39.14823 | 115.97203 | 17369 ft | 392 kts | 242° |
| 2026-04-18 07:48 | 39.13507 | 115.94163 | 18205 ft | 398 kts | 242° |
| 2026-04-18 07:48 | 39.12149 | 115.91031 | 19118 ft | 403 kts | 242° |
| 2026-04-18 07:48 | 39.10778 | 115.87871 | 19999 ft | 407 kts | 242° |
| 2026-04-18 07:49 | 39.09397 | 115.84690 | 20817 ft | 413 kts | 242° |
| 2026-04-18 07:49 | 39.07988 | 115.81448 | 21651 ft | 418 kts | 242° |
| 2026-04-18 07:49 | 39.06558 | 115.78161 | 22433 ft | 424 kts | 242° |
| 2026-04-18 07:49 | 39.05113 | 115.74844 | 23180 ft | 430 kts | 242° |
| 2026-04-18 07:50 | 39.03650 | 115.71489 | 23928 ft | 435 kts | 242° |
| 2026-04-18 07:50 | 39.02162 | 115.68081 | 24715 ft | 439 kts | 242° |
| 2026-04-18 07:50 | 39.00664 | 115.64655 | 25376 ft | 444 kts | 242° |
| 2026-04-18 07:50 | 38.99155 | 115.61205 | 26049 ft | 449 kts | 243° |
| 2026-04-18 07:51 | 38.97613 | 115.57684 | 26727 ft | 453 kts | 243° |
| 2026-04-18 07:51 | 38.96061 | 115.54142 | 27371 ft | 458 kts | 243° |
| 2026-04-18 07:51 | 38.94502 | 115.50592 | 27957 ft | 464 kts | 243° |
| 2026-04-18 07:51 | 38.93032 | 115.46887 | 28569 ft | 467 kts | 248° |
| 2026-04-18 07:52 | 38.91729 | 115.43076 | 29221 ft | 470 kts | 249° |
| 2026-04-18 07:52 | 38.90424 | 115.39243 | 30049 ft | 470 kts | 249° |
| 2026-04-18 07:52 | 38.89111 | 115.35423 | 31001 ft | 466 kts | 249° |
| 2026-04-18 07:52 | 38.87804 | 115.31643 | 31905 ft | 462 kts | 248° |
| 2026-04-18 07:53 | 38.86507 | 115.27912 | 32635 ft | 460 kts | 248° |
| 2026-04-18 07:53 | 38.85191 | 115.24143 | 33278 ft | 460 kts | 248° |
| 2026-04-18 07:53 | 38.83888 | 115.20424 | 33842 ft | 460 kts | 248° |
| 2026-04-18 07:53 | 38.82576 | 115.16692 | 33963 ft | 462 kts | 248° |
| 2026-04-18 07:54 | 38.79942 | 115.09223 | 33959 ft | 458 kts | 248° |
| 2026-04-18 07:54 | 38.77326 | 115.01835 | 33959 ft | 459 kts | 248° |
| 2026-04-18 07:55 | 38.74684 | 114.94392 | 33958 ft | 458 kts | 248° |
| 2026-04-18 07:55 | 38.72037 | 114.86945 | 33951 ft | 458 kts | 248° |
| 2026-04-18 07:56 | 38.69393 | 114.79527 | 33957 ft | 459 kts | 248° |
| 2026-04-18 07:56 | 38.66750 | 114.72131 | 33958 ft | 459 kts | 248° |
| 2026-04-18 07:57 | 38.64099 | 114.64735 | 33953 ft | 458 kts | 248° |
| 2026-04-18 07:57 | 38.61434 | 114.57328 | 33962 ft | 459 kts | 248° |
| 2026-04-18 07:58 | 38.57410 | 114.46244 | 33962 ft | 458 kts | 248° |
| 2026-04-18 07:59 | 38.54746 | 114.38891 | 33956 ft | 459 kts | 248° |
| 2026-04-18 07:59 | 38.52067 | 114.31514 | 33953 ft | 460 kts | 248° |
| 2026-04-18 08:00 | 38.49384 | 114.24148 | 33952 ft | 459 kts | 248° |
| 2026-04-18 08:00 | 38.46693 | 114.16775 | 33952 ft | 460 kts | 248° |
| 2026-04-18 08:01 | 38.43998 | 114.09411 | 33956 ft | 459 kts | 248° |
| 2026-04-18 08:01 | 38.41301 | 114.02059 | 33958 ft | 460 kts | 248° |
| 2026-04-18 08:02 | 38.38589 | 113.94672 | 33962 ft | 460 kts | 248° |
| 2026-04-18 08:02 | 38.35885 | 113.87322 | 33974 ft | 461 kts | 248° |
| 2026-04-18 08:03 | 38.33163 | 113.79964 | 33988 ft | 459 kts | 248° |
| 2026-04-18 08:03 | 38.30387 | 113.72601 | 34010 ft | 461 kts | 248° |
| 2026-04-18 08:04 | 38.27639 | 113.65327 | 34039 ft | 460 kts | 248° |
| 2026-04-18 08:04 | 38.24865 | 113.57999 | 34055 ft | 461 kts | 248° |
| 2026-04-18 08:05 | 38.22094 | 113.50698 | 34074 ft | 459 kts | 248° |
| 2026-04-18 08:05 | 38.19320 | 113.43402 | 34094 ft | 460 kts | 248° |
| 2026-04-18 08:06 | 38.16532 | 113.36086 | 34102 ft | 460 kts | 248° |
| 2026-04-18 08:06 | 38.13795 | 113.28759 | 34121 ft | 462 kts | 248° |
| 2026-04-18 08:07 | 38.11056 | 113.21407 | 34131 ft | 460 kts | 248° |
| 2026-04-18 08:07 | 38.08310 | 113.14059 | 34137 ft | 462 kts | 249° |
| 2026-04-18 08:08 | 38.05554 | 113.06705 | 34135 ft | 461 kts | 249° |
| 2026-04-18 08:08 | 38.02801 | 112.99380 | 34135 ft | 462 kts | 249° |
| 2026-04-18 08:09 | 38.00040 | 112.92051 | 34130 ft | 462 kts | 249° |
| 2026-04-18 08:09 | 37.97266 | 112.84707 | 34121 ft | 462 kts | 249° |
| 2026-04-18 08:10 | 37.94493 | 112.77381 | 34111 ft | 461 kts | 249° |
| 2026-04-18 08:10 | 37.91736 | 112.70116 | 34091 ft | 463 kts | 249° |
| 2026-04-18 08:11 | 37.88955 | 112.62808 | 34066 ft | 460 kts | 249° |
| 2026-04-18 08:11 | 37.86102 | 112.55516 | 34061 ft | 463 kts | 246° |
| 2026-04-18 08:12 | 37.83054 | 112.48370 | 34048 ft | 463 kts | 246° |
| 2026-04-18 08:12 | 37.80006 | 112.41220 | 34078 ft | 463 kts | 246° |
| 2026-04-18 08:13 | 37.76965 | 112.34071 | 34087 ft | 462 kts | 247° |
| 2026-04-18 08:13 | 37.74164 | 112.26762 | 34124 ft | 460 kts | 249° |
| 2026-04-18 08:14 | 37.71402 | 112.19487 | 34133 ft | 462 kts | 249° |
| 2026-04-18 08:14 | 37.68633 | 112.12244 | 34140 ft | 460 kts | 249° |
| 2026-04-18 08:15 | 37.65828 | 112.04930 | 34130 ft | 462 kts | 249° |
| 2026-04-18 08:15 | 37.63029 | 111.97661 | 34127 ft | 460 kts | 249° |
| 2026-04-18 08:16 | 37.60242 | 111.90442 | 34131 ft | 463 kts | 249° |
| 2026-04-18 08:16 | 37.57420 | 111.83154 | 34131 ft | 460 kts | 249° |
| 2026-04-18 08:17 | 37.54617 | 111.75929 | 34148 ft | 462 kts | 249° |
| 2026-04-18 08:17 | 37.51771 | 111.68641 | 34146 ft | 464 kts | 249° |
| 2026-04-18 08:18 | 37.48350 | 111.61714 | 34132 ft | 466 kts | 241° |
| 2026-04-18 08:18 | 37.44720 | 111.54964 | 34138 ft | 471 kts | 241° |
| 2026-04-18 08:19 | 37.41050 | 111.48154 | 34126 ft | 468 kts | 241° |
| 2026-04-18 08:19 | 37.37406 | 111.41396 | 34125 ft | 469 kts | 241° |
| 2026-04-18 08:20 | 37.33810 | 111.34740 | 34122 ft | 469 kts | 241° |
| 2026-04-18 08:20 | 37.30100 | 111.27884 | 34145 ft | 470 kts | 241° |
| 2026-04-18 08:21 | 37.26453 | 111.21159 | 34141 ft | 468 kts | 241° |
| 2026-04-18 08:21 | 37.22777 | 111.14393 | 34142 ft | 471 kts | 241° |
| 2026-04-18 08:22 | 37.19079 | 111.07600 | 34129 ft | 470 kts | 241° |
| 2026-04-18 08:22 | 37.15397 | 111.00851 | 34125 ft | 470 kts | 241° |
| 2026-04-18 08:23 | 37.11720 | 110.94125 | 34118 ft | 470 kts | 241° |
| 2026-04-18 08:23 | 37.08041 | 110.87408 | 34106 ft | 470 kts | 241° |
| 2026-04-18 08:24 | 37.04337 | 110.80657 | 34109 ft | 469 kts | 241° |
| 2026-04-18 08:24 | 37.00665 | 110.73980 | 34096 ft | 471 kts | 241° |
| 2026-04-18 08:25 | 36.96992 | 110.67172 | 34093 ft | 469 kts | 242° |
| 2026-04-18 08:25 | 36.93391 | 110.60412 | 34079 ft | 471 kts | 242° |
| 2026-04-18 08:26 | 36.89769 | 110.53635 | 34070 ft | 469 kts | 242° |
| 2026-04-18 08:26 | 36.86146 | 110.46873 | 34039 ft | 470 kts | 243° |
| 2026-04-18 08:27 | 36.82525 | 110.40134 | 34043 ft | 469 kts | 242° |
| 2026-04-18 08:27 | 36.78899 | 110.33398 | 34056 ft | 469 kts | 242° |
| 2026-04-18 08:28 | 36.75264 | 110.26659 | 34043 ft | 469 kts | 242° |
| 2026-04-18 08:28 | 36.71605 | 110.19889 | 34049 ft | 472 kts | 242° |
| 2026-04-18 08:29 | 36.67973 | 110.13185 | 34054 ft | 469 kts | 242° |
| 2026-04-18 08:29 | 36.64308 | 110.06432 | 34060 ft | 471 kts | 242° |
| 2026-04-18 08:30 | 36.60643 | 109.99694 | 34065 ft | 469 kts | 242° |
| 2026-04-18 08:30 | 36.57014 | 109.93034 | 34070 ft | 468 kts | 242° |
| 2026-04-18 08:31 | 36.53346 | 109.86315 | 34070 ft | 469 kts | 242° |
| 2026-04-18 08:31 | 36.49685 | 109.79624 | 34073 ft | 468 kts | 242° |
| 2026-04-18 08:32 | 36.46054 | 109.72998 | 34075 ft | 468 kts | 242° |
| 2026-04-18 08:32 | 36.42376 | 109.66302 | 34071 ft | 466 kts | 243° |
| 2026-04-18 08:33 | 36.38723 | 109.59663 | 34072 ft | 468 kts | 243° |
| 2026-04-18 08:33 | 36.35068 | 109.53036 | 34072 ft | 466 kts | 243° |
| 2026-04-18 08:34 | 36.31415 | 109.46422 | 34069 ft | 466 kts | 243° |
| 2026-04-18 08:34 | 36.27097 | 109.40349 | 34067 ft | 484 kts | 226° |
| 2026-04-18 08:35 | 36.21313 | 109.35942 | 34073 ft | 489 kts | 213° |
| 2026-04-18 08:35 | 36.15112 | 109.32195 | 34079 ft | 499 kts | 212° |
| 2026-04-18 08:36 | 36.08891 | 109.28470 | 34074 ft | 496 kts | 212° |
| 2026-04-18 08:36 | 36.02700 | 109.24768 | 34076 ft | 499 kts | 212° |
| 2026-04-18 08:37 | 35.96462 | 109.21047 | 34071 ft | 497 kts | 212° |
| 2026-04-18 08:37 | 35.90209 | 109.17320 | 34069 ft | 499 kts | 212° |
| 2026-04-18 08:38 | 35.83913 | 109.13686 | 34045 ft | 504 kts | 207° |
| 2026-04-18 08:38 | 35.77305 | 109.10704 | 34056 ft | 504 kts | 205° |
| 2026-04-18 08:39 | 35.70741 | 109.07792 | 34052 ft | 507 kts | 205° |
| 2026-04-18 08:39 | 35.64143 | 109.04868 | 34055 ft | 504 kts | 205° |
| 2026-04-18 08:40 | 35.57477 | 109.01914 | 34049 ft | 506 kts | 205° |
| 2026-04-18 08:40 | 35.50867 | 108.98990 | 34057 ft | 505 kts | 205° |
| 2026-04-18 08:41 | 35.44266 | 108.96074 | 34056 ft | 505 kts | 205° |
| 2026-04-18 08:41 | 35.37674 | 108.93166 | 34063 ft | 506 kts | 205° |
| 2026-04-18 08:42 | 35.31082 | 108.90263 | 34063 ft | 506 kts | 205° |
| 2026-04-18 08:42 | 35.24436 | 108.87342 | 34069 ft | 504 kts | 205° |
| 2026-04-18 08:43 | 35.17847 | 108.84450 | 34064 ft | 507 kts | 205° |
| 2026-04-18 08:43 | 35.11232 | 108.81553 | 34058 ft | 504 kts | 205° |
| 2026-04-18 08:44 | 35.04619 | 108.78661 | 34053 ft | 504 kts | 205° |
| 2026-04-18 08:44 | 34.98056 | 108.75796 | 34045 ft | 505 kts | 205° |
| 2026-04-18 08:45 | 34.91471 | 108.72927 | 34048 ft | 500 kts | 204° |
| 2026-04-18 08:45 | 34.84889 | 108.70061 | 34034 ft | 503 kts | 205° |
| 2026-04-18 08:46 | 34.78327 | 108.67212 | 34029 ft | 502 kts | 205° |
| 2026-04-18 08:46 | 34.71748 | 108.64359 | 34017 ft | 500 kts | 205° |
| 2026-04-18 08:47 | 34.65187 | 108.61520 | 34002 ft | 499 kts | 205° |
| 2026-04-18 08:47 | 34.58648 | 108.58693 | 33989 ft | 500 kts | 204° |
| 2026-04-18 08:48 | 34.52108 | 108.55872 | 33975 ft | 498 kts | 204° |
| 2026-04-18 08:48 | 34.45601 | 108.53069 | 33975 ft | 498 kts | 204° |
| 2026-04-18 08:49 | 34.39088 | 108.50269 | 33969 ft | 496 kts | 204° |
| 2026-04-18 08:49 | 34.32559 | 108.47466 | 33973 ft | 495 kts | 204° |
| 2026-04-18 08:50 | 34.26075 | 108.44688 | 33971 ft | 495 kts | 204° |
| 2026-04-18 08:50 | 34.19556 | 108.41898 | 33998 ft | 495 kts | 204° |
| 2026-04-18 08:51 | 34.13103 | 108.39141 | 34046 ft | 496 kts | 204° |
| 2026-04-18 08:51 | 34.06587 | 108.36363 | 34090 ft | 494 kts | 204° |
| 2026-04-18 08:52 | 34.00093 | 108.33598 | 34133 ft | 493 kts | 203° |
| 2026-04-18 08:52 | 33.93646 | 108.30858 | 34153 ft | 491 kts | 204° |
| 2026-04-18 08:53 | 33.87187 | 108.28116 | 34158 ft | 493 kts | 204° |
| 2026-04-18 08:53 | 33.80741 | 108.25385 | 34181 ft | 492 kts | 204° |
| 2026-04-18 08:54 | 33.74323 | 108.22671 | 34189 ft | 490 kts | 204° |
| 2026-04-18 08:54 | 33.67880 | 108.19949 | 34168 ft | 490 kts | 204° |
| 2026-04-18 08:55 | 33.61424 | 108.17226 | 34149 ft | 490 kts | 204° |
| 2026-04-18 08:55 | 33.55035 | 108.14536 | 34121 ft | 490 kts | 204° |
| 2026-04-18 08:56 | 33.48582 | 108.11822 | 34087 ft | 490 kts | 204° |
| 2026-04-18 08:56 | 33.42245 | 108.08875 | 34089 ft | 483 kts | 213° |
| 2026-04-18 08:57 | 33.34286 | 108.01807 | 34083 ft | 474 kts | 225° |
| 2026-04-18 08:57 | 33.29195 | 107.96802 | 34071 ft | 472 kts | 225° |
| 2026-04-18 08:58 | 33.24142 | 107.91835 | 34056 ft | 473 kts | 225° |
| 2026-04-18 08:58 | 33.19089 | 107.86847 | 34043 ft | 470 kts | 225° |
| 2026-04-18 08:59 | 33.14051 | 107.81881 | 34035 ft | 471 kts | 225° |
| 2026-04-18 08:59 | 33.08983 | 107.76894 | 34004 ft | 470 kts | 225° |
| 2026-04-18 09:00 | 33.03960 | 107.71959 | 33990 ft | 471 kts | 225° |
| 2026-04-18 09:00 | 32.98920 | 107.67016 | 33988 ft | 469 kts | 225° |
| 2026-04-18 09:01 | 32.93879 | 107.62079 | 34009 ft | 469 kts | 225° |
| 2026-04-18 09:01 | 32.88851 | 107.57163 | 34026 ft | 468 kts | 225° |
| 2026-04-18 09:02 | 32.83917 | 107.52345 | 34051 ft | 468 kts | 225° |
| 2026-04-18 09:02 | 32.79468 | 107.46964 | 34071 ft | 458 kts | 239° |
| 2026-04-18 09:03 | 32.75720 | 107.40841 | 34103 ft | 455 kts | 240° |
| 2026-04-18 09:03 | 32.72145 | 107.34974 | 34093 ft | 455 kts | 239° |
| 2026-04-18 09:04 | 32.68444 | 107.28915 | 34103 ft | 454 kts | 239° |
| 2026-04-18 09:04 | 32.64741 | 107.22864 | 34109 ft | 456 kts | 239° |
| 2026-04-18 09:05 | 32.61008 | 107.16779 | 34117 ft | 453 kts | 239° |
| 2026-04-18 09:05 | 32.57328 | 107.10787 | 34112 ft | 454 kts | 239° |
| 2026-04-18 09:06 | 32.53596 | 107.04723 | 34106 ft | 454 kts | 239° |
| 2026-04-18 09:06 | 32.49889 | 106.98708 | 34110 ft | 454 kts | 239° |
| 2026-04-18 09:07 | 32.46150 | 106.92651 | 34097 ft | 454 kts | 239° |
| 2026-04-18 09:07 | 32.42436 | 106.86646 | 34081 ft | 454 kts | 240° |
| 2026-04-18 09:08 | 32.38713 | 106.80634 | 34077 ft | 453 kts | 240° |
| 2026-04-18 09:08 | 32.34989 | 106.74625 | 34058 ft | 454 kts | 241° |
| 2026-04-18 09:09 | 32.32176 | 106.68124 | 34063 ft | 440 kts | 257° |
| 2026-04-18 09:09 | 32.30611 | 106.61186 | 34050 ft | 438 kts | 261° |
| 2026-04-18 09:10 | 32.29118 | 106.54224 | 34041 ft | 437 kts | 261° |
| 2026-04-18 09:10 | 32.27618 | 106.47266 | 34029 ft | 436 kts | 261° |
| 2026-04-18 09:11 | 32.26123 | 106.40369 | 34027 ft | 436 kts | 261° |
| 2026-04-18 09:11 | 32.24642 | 106.33556 | 34032 ft | 437 kts | 261° |
| 2026-04-18 09:12 | 32.23130 | 106.26625 | 34031 ft | 436 kts | 260° |
| 2026-04-18 09:12 | 32.21589 | 106.19704 | 34042 ft | 439 kts | 257° |
| 2026-04-18 09:13 | 32.18957 | 106.13157 | 34061 ft | 448 kts | 244° |
| 2026-04-18 09:13 | 32.15624 | 106.06934 | 34068 ft | 449 kts | 244° |
| 2026-04-18 09:14 | 32.12284 | 106.00730 | 34079 ft | 450 kts | 244° |
| 2026-04-18 09:14 | 32.08948 | 105.94538 | 34072 ft | 449 kts | 244° |
| 2026-04-18 09:15 | 32.05602 | 105.88335 | 34067 ft | 448 kts | 244° |
| 2026-04-18 09:15 | 32.02275 | 105.82179 | 34041 ft | 448 kts | 244° |
| 2026-04-18 09:16 | 31.98904 | 105.75947 | 34021 ft | 448 kts | 244° |
| 2026-04-18 09:16 | 31.95556 | 105.69770 | 34021 ft | 449 kts | 244° |
| 2026-04-18 09:17 | 31.92194 | 105.63577 | 34041 ft | 450 kts | 244° |
| 2026-04-18 09:17 | 31.89006 | 105.57713 | 34030 ft | 450 kts | 244° |
| 2026-04-18 09:18 | 31.85639 | 105.51530 | 34030 ft | 449 kts | 244° |
| 2026-04-18 09:18 | 31.82294 | 105.45397 | 34031 ft | 450 kts | 244° |
| 2026-04-18 09:19 | 31.78940 | 105.39254 | 34026 ft | 450 kts | 244° |
| 2026-04-18 09:19 | 31.75703 | 105.33337 | 34039 ft | 449 kts | 243° |
| 2026-04-18 09:20 | 31.72347 | 105.27208 | 34034 ft | 449 kts | 243° |
| 2026-04-18 09:20 | 31.68957 | 105.21028 | 34028 ft | 450 kts | 243° |
| 2026-04-18 09:21 | 31.65690 | 105.14928 | 34023 ft | 447 kts | 244° |
| 2026-04-18 09:21 | 31.62392 | 105.08707 | 34018 ft | 449 kts | 244° |
| 2026-04-18 09:22 | 31.59104 | 105.02523 | 34013 ft | 449 kts | 244° |
| 2026-04-18 09:22 | 31.55785 | 104.96295 | 34008 ft | 448 kts | 244° |
| 2026-04-18 09:23 | 31.52499 | 104.90140 | 33997 ft | 447 kts | 245° |
| 2026-04-18 09:23 | 31.49226 | 104.83932 | 34008 ft | 448 kts | 245° |
| 2026-04-18 09:24 | 31.45983 | 104.77745 | 34001 ft | 446 kts | 245° |
| 2026-04-18 09:24 | 31.42715 | 104.71522 | 34001 ft | 448 kts | 245° |
| 2026-04-18 09:25 | 31.39481 | 104.65381 | 34001 ft | 445 kts | 245° |
| 2026-04-18 09:25 | 31.36232 | 104.59220 | 34017 ft | 447 kts | 245° |
| 2026-04-18 09:26 | 31.32986 | 104.53075 | 34012 ft | 445 kts | 245° |
| 2026-04-18 09:26 | 31.29769 | 104.46999 | 33849 ft | 438 kts | 245° |
| 2026-04-18 09:27 | 31.28151 | 104.43947 | 33170 ft | 437 kts | 245° |
| 2026-04-18 09:27 | 31.26557 | 104.40938 | 32410 ft | 437 kts | 245° |
| 2026-04-18 09:27 | 31.24959 | 104.37921 | 31647 ft | 447 kts | 244° |
| 2026-04-18 09:27 | 31.23401 | 104.34964 | 30882 ft | 466 kts | 244° |
| 2026-04-18 09:28 | 31.21595 | 104.31544 | 30250 ft | 464 kts | 243° |
| 2026-04-18 09:28 | 31.19900 | 104.28345 | 29814 ft | 460 kts | 243° |
| 2026-04-18 09:28 | 31.18226 | 104.25183 | 29320 ft | 458 kts | 243° |
| 2026-04-18 09:28 | 31.16557 | 104.22033 | 28811 ft | 457 kts | 243° |
| 2026-04-18 09:29 | 31.14903 | 104.18916 | 28289 ft | 455 kts | 243° |
| 2026-04-18 09:29 | 31.13230 | 104.15763 | 27762 ft | 451 kts | 243° |
| 2026-04-18 09:29 | 31.11606 | 104.12707 | 27247 ft | 447 kts | 243° |
| 2026-04-18 09:29 | 31.09862 | 104.09720 | 26721 ft | 447 kts | 235° |
| 2026-04-18 09:30 | 31.07727 | 104.07088 | 26188 ft | 449 kts | 225° |
| 2026-04-18 09:30 | 31.05231 | 104.04902 | 25678 ft | 450 kts | 216° |
| 2026-04-18 09:30 | 31.02463 | 104.03224 | 25125 ft | 452 kts | 206° |
| 2026-04-18 09:30 | 30.99536 | 104.01805 | 24556 ft | 452 kts | 205° |
| 2026-04-18 09:31 | 30.96617 | 104.00424 | 23968 ft | 451 kts | 205° |
| 2026-04-18 09:31 | 30.93747 | 103.99071 | 23398 ft | 448 kts | 205° |
| 2026-04-18 09:31 | 30.90865 | 103.97715 | 22838 ft | 444 kts | 204° |
| 2026-04-18 09:31 | 30.88240 | 103.96481 | 22326 ft | 440 kts | 204° |
| 2026-04-18 09:32 | 30.85396 | 103.95145 | 21746 ft | 436 kts | 204° |
| 2026-04-18 09:32 | 30.82587 | 103.93827 | 21213 ft | 432 kts | 204° |
| 2026-04-18 09:32 | 30.79847 | 103.92542 | 20670 ft | 427 kts | 204° |
| 2026-04-18 09:32 | 30.77084 | 103.91247 | 20148 ft | 423 kts | 204° |
| 2026-04-18 09:33 | 30.74388 | 103.89985 | 19587 ft | 420 kts | 204° |
| 2026-04-18 09:33 | 30.71680 | 103.88717 | 19041 ft | 417 kts | 204° |
| 2026-04-18 09:33 | 30.69006 | 103.87466 | 18494 ft | 413 kts | 204° |
| 2026-04-18 09:33 | 30.66350 | 103.86224 | 17953 ft | 411 kts | 204° |
| 2026-04-18 09:34 | 30.63715 | 103.84994 | 17395 ft | 408 kts | 204° |
| 2026-04-18 09:34 | 30.61062 | 103.83755 | 16924 ft | 402 kts | 204° |
| 2026-04-18 09:34 | 30.58520 | 103.82569 | 16829 ft | 386 kts | 204° |
| 2026-04-18 09:34 | 30.56073 | 103.81429 | 16719 ft | 372 kts | 204° |
| 2026-04-18 09:35 | 30.53700 | 103.80324 | 16600 ft | 359 kts | 204° |
| 2026-04-18 09:35 | 30.51411 | 103.79258 | 16447 ft | 348 kts | 204° |
| 2026-04-18 09:35 | 30.49224 | 103.78239 | 16308 ft | 337 kts | 204° |
| 2026-04-18 09:35 | 30.47055 | 103.77229 | 16143 ft | 326 kts | 204° |
| 2026-04-18 09:36 | 30.44981 | 103.76274 | 16027 ft | 315 kts | 204° |
| 2026-04-18 09:36 | 30.42970 | 103.75357 | 15911 ft | 305 kts | 204° |
| 2026-04-18 09:36 | 30.41038 | 103.74476 | 15768 ft | 295 kts | 204° |
| 2026-04-18 09:36 | 30.39143 | 103.73610 | 15659 ft | 285 kts | 204° |
| 2026-04-18 09:37 | 30.37325 | 103.72778 | 15438 ft | 281 kts | 204° |
| 2026-04-18 09:37 | 30.35516 | 103.71948 | 14995 ft | 283 kts | 204° |
| 2026-04-18 09:37 | 30.33663 | 103.71099 | 14597 ft | 284 kts | 203° |
| 2026-04-18 09:37 | 30.31832 | 103.70261 | 14310 ft | 282 kts | 203° |
| 2026-04-18 09:38 | 30.30027 | 103.69436 | 13941 ft | 283 kts | 203° |
| 2026-04-18 09:38 | 30.28177 | 103.68577 | 13508 ft | 285 kts | 203° |
| 2026-04-18 09:38 | 30.26334 | 103.67715 | 13069 ft | 288 kts | 203° |
| 2026-04-18 09:38 | 30.24465 | 103.66842 | 12641 ft | 289 kts | 203° |
| 2026-04-18 09:39 | 30.22600 | 103.65973 | 12281 ft | 289 kts | 203° |
| 2026-04-18 09:39 | 30.20661 | 103.65325 | 11868 ft | 291 kts | 184° |
| 2026-04-18 09:39 | 30.18690 | 103.65649 | 11486 ft | 292 kts | 159° |
| 2026-04-18 09:39 | 30.16995 | 103.66980 | 11000 ft | 296 kts | 132° |
| 2026-04-18 09:40 | 30.15900 | 103.68967 | 10622 ft | 298 kts | 117° |
| 2026-04-18 09:40 | 30.15331 | 103.71269 | 10194 ft | 301 kts | 93° |
| 2026-04-18 09:40 | 30.15661 | 103.73650 | 9780 ft | 302 kts | 67° |
| 2026-04-18 09:40 | 30.16822 | 103.75637 | 9454 ft | 298 kts | 44° |
| 2026-04-18 09:41 | 30.18521 | 103.76936 | 9112 ft | 294 kts | 23° |
| 2026-04-18 09:41 | 30.20412 | 103.77848 | 8759 ft | 294 kts | 22° |
| 2026-04-18 09:41 | 30.22308 | 103.78746 | 8331 ft | 293 kts | 22° |
| 2026-04-18 09:41 | 30.24179 | 103.79629 | 7967 ft | 289 kts | 22° |
| 2026-04-18 09:42 | 30.26022 | 103.80476 | 7660 ft | 279 kts | 21° |
| 2026-04-18 09:42 | 30.27835 | 103.81272 | 7334 ft | 277 kts | 21° |
| 2026-04-18 09:42 | 30.29622 | 103.82042 | 7000 ft | 274 kts | 21° |
| 2026-04-18 09:42 | 30.31421 | 103.82810 | 6661 ft | 272 kts | 21° |
| 2026-04-18 09:43 | 30.33196 | 103.83565 | 6321 ft | 270 kts | 21° |
| 2026-04-18 09:43 | 30.34936 | 103.84306 | 5981 ft | 268 kts | 21° |
| 2026-04-18 09:43 | 30.36697 | 103.85060 | 5636 ft | 266 kts | 22° |
| 2026-04-18 09:43 | 30.38427 | 103.85810 | 5282 ft | 264 kts | 22° |
| 2026-04-18 09:44 | 30.40129 | 103.86556 | 4946 ft | 263 kts | 22° |
| 2026-04-18 09:44 | 30.41836 | 103.87315 | 4598 ft | 261 kts | 22° |
| 2026-04-18 09:44 | 30.43512 | 103.88070 | 4264 ft | 254 kts | 22° |
| 2026-04-18 09:44 | 30.45106 | 103.88793 | 3954 ft | 234 kts | 23° |
| 2026-04-18 09:45 | 30.46536 | 103.89453 | 3660 ft | 215 kts | 23° |
| 2026-04-18 09:45 | 30.47879 | 103.90081 | 3391 ft | 199 kts | 24° |
| 2026-04-18 09:45 | 30.49128 | 103.90663 | 3131 ft | 187 kts | 24° |
| 2026-04-18 09:45 | 30.50260 | 103.91188 | 2905 ft | 169 kts | 24° |
| 2026-04-18 09:46 | 30.51318 | 103.91678 | 2687 ft | 159 kts | 24° |
| 2026-04-18 09:46 | 30.52330 | 103.92148 | 2476 ft | 156 kts | 23° |
| 2026-04-18 09:46 | 30.53343 | 103.92607 | 2248 ft | 155 kts | 23° |
| 2026-04-18 09:46 | 30.54326 | 103.93059 | 2050 ft | 153 kts | 24° |
| 2026-04-18 09:47 | 30.55310 | 103.93520 | 1849 ft | 152 kts | 24° |
| 2026-04-18 09:47 | 30.56300 | 103.93978 | 1692 ft | 151 kts | 23° |
| 2026-04-18 09:47 | 30.57248 | 103.94418 | 1644 ft | 135 kts | 24° |
| 2026-04-18 09:47 | 30.57928 | 103.94737 | 1644 ft | 80 kts | 22° |
| 2026-04-18 09:48 | 30.58273 | 103.94900 | 1644 ft | 28 kts | 25° |
| 2026-04-18 09:48 | 30.58437 | 103.94999 | 1644 ft | 26 kts | 35° |
| 2026-04-18 09:48 | 30.58531 | 103.95111 | 1644 ft | 15 kts | 51° |
| 2026-04-18 09:48 | 30.58578 | 103.95204 | 1644 ft | 12 kts | 93° |
| 2026-04-18 09:49 | 30.58542 | 103.95292 | 1644 ft | 7 kts | 115° |
| 2026-04-18 09:49 | 30.58505 | 103.95306 | 1644 ft | 7 kts | 191° |
| 2026-04-18 09:49 | 30.58445 | 103.95281 | 1644 ft | 11 kts | 202° |
| 2026-04-18 09:49 | 30.58363 | 103.95242 | 1644 ft | 14 kts | 202° |
| 2026-04-18 09:50 | 30.58261 | 103.95194 | 1644 ft | 16 kts | 201° |
| 2026-04-18 09:50 | 30.58151 | 103.95144 | 1644 ft | 18 kts | 202° |
| 2026-04-18 09:50 | 30.58037 | 103.95091 | 1644 ft | 9 kts | 202° |
| 2026-04-18 09:50 | 30.57971 | 103.95059 | 1644 ft | 11 kts | 202° |
| 2026-04-18 09:51 | 30.57889 | 103.95020 | 1644 ft | 13 kts | 202° |
| 2026-04-18 09:51 | 30.57795 | 103.94976 | 1643 ft | 15 kts | 202° |
| 2026-04-18 09:51 | 30.57691 | 103.94926 | 1643 ft | 13 kts | 202° |
| 2026-04-18 09:51 | 30.57615 | 103.94940 | 1643 ft | 12 kts | 140° |
| 2026-04-18 09:52 | 30.57549 | 103.94949 | 1643 ft | 10 kts | 199° |
| 2026-04-18 09:52 | 30.57475 | 103.94916 | 1643 ft | 12 kts | 201° |
| 2026-04-18 09:52 | 30.57386 | 103.94877 | 1643 ft | 14 kts | 201° |
| 2026-04-18 09:52 | 30.57296 | 103.94835 | 1643 ft | 10 kts | 202° |
| 2026-04-18 09:53 | 30.57228 | 103.94820 | 1643 ft | 9 kts | 165° |
| 2026-04-18 09:53 | 30.57165 | 103.94846 | 1643 ft | 9 kts | 157° |
| 2026-04-18 09:53 | 30.57118 | 103.94869 | 1643 ft | 2 kts | 158° |
| 2026-04-18 09:53 | 30.57101 | 103.94878 | 1643 ft | 2 kts | 156° |
| 2026-04-18 09:54 | 30.57088 | 103.94884 | 1643 ft | 0 kts | 157° |
| 2026-04-18 09:54 | 30.57087 | 103.94885 | 1643 ft | 0 kts | 157° |
| 2026-04-18 09:54 | 30.57083 | 103.94887 | 1643 ft | 0 kts | 157° |